Terminal Aerodrome Forecast
Issued by NWS Twin Cities, MN

Home | Current Version | Previous Version | Text Only | Print | Product List | Glossary Off
Versions: 1 2 3 4 5 6 7 8 9 10 11 12 13 14 15 16 17 18 19 20

000
FTUS43 KMPX 231100
TAFSTC
TAF
KSTC 231137Z 2312/2412 17005KT 3SM BR BKN070
     FM231400 23006KT P6SM BKN070
     FM231900 29008KT P6SM BKN070
     FM240300 32014G24KT P6SM BKN015
     FM240900 31020G29KT P6SM OVC015=

USA.gov is the U.S. government's official web portal to all federal, state and local government web resources and services.